createdAt,value
2023-05-21T00:00:39.761Z,78.07
2023-05-21T00:02:15.822Z,80.74
2023-05-21T00:03:50.866Z,79.36
2023-05-21T00:05:24.902Z,79.58
2023-05-21T00:06:59.452Z,81.81
2023-05-21T00:08:34.580Z,81.60
2023-05-21T00:10:08.666Z,79.86
2023-05-21T00:11:42.544Z,82.10
2023-05-21T00:13:16.799Z,81.79
2023-05-21T00:14:50.402Z,83.25
2023-05-21T00:16:24.601Z,82.79
2023-05-21T00:17:58.288Z,82.83
2023-05-21T00:19:34.160Z,83.83
2023-05-21T00:21:08.157Z,83.76
2023-05-21T00:22:42.737Z,84.23
2023-05-21T00:24:16.677Z,84.54
2023-05-21T00:25:51.029Z,85.38
2023-05-21T00:27:24.836Z,85.74
2023-05-21T00:28:58.819Z,84.78
2023-05-21T00:30:32.741Z,84.18
2023-05-21T00:32:07.006Z,84.51
2023-05-21T00:33:40.557Z,82.86
2023-05-21T00:35:14.435Z,83.59
2023-05-21T00:36:48.379Z,82.66
2023-05-21T00:38:22.782Z,83.15
2023-05-21T00:39:59.435Z,81.81
2023-05-21T00:41:33.239Z,80.60
2023-05-21T00:43:08.779Z,79.24
2023-05-21T00:44:46.898Z,79.63
2023-05-21T00:46:22.053Z,78.76
2023-05-21T00:47:56.501Z,77.81
2023-05-21T00:49:31.038Z,75.33
2023-05-21T00:51:06.044Z,68.93
2023-05-21T00:52:42.408Z,63.89
2023-05-21T00:54:16.378Z,59.17
2023-05-21T00:55:51.359Z,56.13
2023-05-21T00:57:33.994Z,53.76
2023-05-21T00:59:08.147Z,52.78
2023-05-21T01:00:41.690Z,49.62
2023-05-21T01:02:18.530Z,48.17
2023-05-21T01:03:58.108Z,46.88
2023-05-21T01:05:31.827Z,44.95
2023-05-21T01:07:12.146Z,42.63
2023-05-21T01:08:47.109Z,42.31
2023-05-21T01:10:22.489Z,41.11
2023-05-21T01:11:57.015Z,41.64
2023-05-21T01:13:31.951Z,39.68
2023-05-21T01:15:06.324Z,39.96
2023-05-21T01:16:43.438Z,38.60
2023-05-21T01:18:17.184Z,38.11
2023-05-21T01:19:53.378Z,38.16
2023-05-21T01:21:31.053Z,37.74
2023-05-21T01:23:06.327Z,37.24
2023-05-21T01:24:40.044Z,36.10
2023-05-21T01:26:13.639Z,36.25
2023-05-21T01:27:47.399Z,35.68
2023-05-21T01:29:21.704Z,35.75
2023-05-21T01:30:57.026Z,35.28
2023-05-21T01:32:49.047Z,34.00
2023-05-21T01:34:30.314Z,32.89
2023-05-21T01:36:12.155Z,33.28
2023-05-21T01:38:11.261Z,32.91
2023-05-21T01:39:52.112Z,32.76
2023-05-21T01:41:30.111Z,32.56
2023-05-21T01:43:08.785Z,32.50
2023-05-21T01:44:43.069Z,31.75
2023-05-21T01:46:21.769Z,31.22
2023-05-21T01:47:56.868Z,31.07
2023-05-21T01:49:31.596Z,31.37
2023-05-21T01:51:06.618Z,30.91
2023-05-21T01:52:40.358Z,31.59
2023-05-21T01:54:14.781Z,30.65
2023-05-21T01:55:48.889Z,30.89
2023-05-21T01:57:22.678Z,30.25
2023-05-21T01:59:00.126Z,29.98
2023-05-21T02:00:35.158Z,29.10
2023-05-21T02:02:08.825Z,28.89
2023-05-21T02:03:43.127Z,28.50
2023-05-21T02:05:17.213Z,29.07
2023-05-21T02:06:50.637Z,29.05
2023-05-21T02:08:23.863Z,28.53
2023-05-21T02:09:57.609Z,28.33
2023-05-21T02:11:31.994Z,28.41
2023-05-21T02:13:05.414Z,28.32
2023-05-21T02:14:38.967Z,28.09
2023-05-21T02:16:15.313Z,28.11
2023-05-21T02:17:51.750Z,27.92
2023-05-21T02:19:25.255Z,28.65
2023-05-21T02:20:58.906Z,28.01
2023-05-21T02:22:32.088Z,27.99
2023-05-21T02:24:05.951Z,27.99
2023-05-21T02:25:40.178Z,27.93
2023-05-21T02:27:14.221Z,27.69
2023-05-21T02:28:48.735Z,27.24
2023-05-21T02:30:22.783Z,27.48
2023-05-21T02:31:59.062Z,27.30
2023-05-21T02:33:33.232Z,27.79
2023-05-21T02:35:07.916Z,27.81
2023-05-21T02:36:42.203Z,27.57
2023-05-21T02:38:19.667Z,27.45
2023-05-21T02:39:53.112Z,27.45
2023-05-21T02:41:27.813Z,27.85
2023-05-21T02:43:02.225Z,27.72
2023-05-21T02:44:37.815Z,27.81
2023-05-21T02:46:10.879Z,27.66
2023-05-21T02:47:44.207Z,27.33
2023-05-21T02:49:18.191Z,27.24
2023-05-21T02:50:54.256Z,27.30
2023-05-21T02:52:28.007Z,26.92
2023-05-21T02:54:01.625Z,26.91
2023-05-21T02:55:35.869Z,26.82
2023-05-21T02:57:09.715Z,26.27
2023-05-21T02:58:46.420Z,26.35
2023-05-21T03:00:20.166Z,26.66
2023-05-21T03:01:54.645Z,26.78
2023-05-21T03:03:28.591Z,25.81
2023-05-21T03:05:01.960Z,25.47
2023-05-21T03:06:38.063Z,25.06
2023-05-21T03:08:12.112Z,24.83
2023-05-21T03:09:47.225Z,24.64
2023-05-21T03:11:24.038Z,25.07
2023-05-21T03:13:00.910Z,25.87
2023-05-21T03:14:37.864Z,25.54
2023-05-21T03:16:11.723Z,25.45
2023-05-21T03:17:45.611Z,25.11
2023-05-21T03:19:18.930Z,24.99
2023-05-21T03:20:52.920Z,24.79
2023-05-21T03:22:29.577Z,25.20
2023-05-21T03:24:07.070Z,24.97
2023-05-21T03:25:40.886Z,24.38
2023-05-21T03:27:14.918Z,24.55
2023-05-21T03:28:49.630Z,24.89
2023-05-21T03:30:23.201Z,24.97
2023-05-21T03:32:17.291Z,24.81
2023-05-21T03:34:00.584Z,24.54
2023-05-21T03:35:37.352Z,24.40
2023-05-21T03:37:11.445Z,24.23
2023-05-21T03:38:50.796Z,24.45
2023-05-21T03:40:25.100Z,24.76
2023-05-21T03:41:58.568Z,24.91
2023-05-21T03:43:44.617Z,24.78
2023-05-21T03:45:18.675Z,25.02
2023-05-21T03:47:10.773Z,24.99
2023-05-21T03:48:44.772Z,24.81
2023-05-21T03:50:22.150Z,25.01
2023-05-21T03:51:59.927Z,24.48
2023-05-21T03:53:35.241Z,24.66
2023-05-21T03:55:09.033Z,24.21
2023-05-21T03:56:42.841Z,24.45
2023-05-21T03:58:16.499Z,24.33
2023-05-21T03:59:49.964Z,24.36
2023-05-21T04:01:23.587Z,24.23
2023-05-21T04:02:59.985Z,24.17
2023-05-21T04:04:41.886Z,23.75
2023-05-21T04:06:16.192Z,23.81
2023-05-21T04:07:50.644Z,24.11
2023-05-21T04:09:28.450Z,23.66
2023-05-21T04:11:02.324Z,23.52
2023-05-21T04:12:36.339Z,23.89
2023-05-21T04:14:11.159Z,23.30
2023-05-21T04:15:47.242Z,23.16
2023-05-21T04:17:21.228Z,22.61
2023-05-21T04:18:55.901Z,22.84
2023-05-21T04:20:31.988Z,22.92
2023-05-21T04:22:06.511Z,23.01
2023-05-21T04:23:40.582Z,22.89
2023-05-21T04:25:23.909Z,22.75
2023-05-21T04:27:01.754Z,22.25
2023-05-21T04:28:37.981Z,22.62
2023-05-21T04:30:11.915Z,22.70
2023-05-21T04:31:46.608Z,23.00
2023-05-21T04:33:21.257Z,22.98
2023-05-21T04:34:55.221Z,23.13
2023-05-21T04:36:29.415Z,22.89
2023-05-21T04:38:06.067Z,23.25
2023-05-21T04:39:41.555Z,23.64
2023-05-21T04:41:15.454Z,23.50
2023-05-21T04:42:51.147Z,23.27
2023-05-21T04:44:27.433Z,23.32
2023-05-21T04:46:01.760Z,23.09
2023-05-21T04:47:36.414Z,23.12
2023-05-21T04:49:10.805Z,23.49
2023-05-21T04:50:45.455Z,22.98
2023-05-21T04:52:19.530Z,23.28
2023-05-21T04:53:54.456Z,23.27
2023-05-21T04:55:29.326Z,22.92
2023-05-21T04:57:03.448Z,23.39
2023-05-21T04:58:36.912Z,22.81
2023-05-21T05:00:11.145Z,23.36
2023-05-21T05:01:48.540Z,23.50
2023-05-21T05:03:22.357Z,23.33
2023-05-21T05:04:56.003Z,23.16
2023-05-21T05:06:29.828Z,23.63
2023-05-21T05:08:04.388Z,23.78
2023-05-21T05:09:37.824Z,23.57
2023-05-21T05:11:11.683Z,23.33
2023-05-21T05:12:46.045Z,23.29
2023-05-21T05:14:19.253Z,23.67
2023-05-21T05:15:54.827Z,22.88
2023-05-21T05:17:28.464Z,22.70
2023-05-21T05:19:02.245Z,22.88
2023-05-21T05:20:36.490Z,22.55
2023-05-21T05:22:11.836Z,22.75
2023-05-21T05:23:47.905Z,22.51
2023-05-21T05:25:21.908Z,22.64
2023-05-21T05:26:55.455Z,22.33
2023-05-21T05:28:29.114Z,22.33
2023-05-21T05:30:02.897Z,22.57
2023-05-21T05:31:40.990Z,22.56
2023-05-21T05:33:14.872Z,22.73
2023-05-21T05:34:48.528Z,22.65
2023-05-21T05:36:22.901Z,22.72
2023-05-21T05:37:57.476Z,23.07
2023-05-21T05:39:31.656Z,22.59
2023-05-21T05:41:05.222Z,22.59
2023-05-21T05:42:41.629Z,22.61
2023-05-21T05:44:26.604Z,22.27
2023-05-21T05:46:01.480Z,22.40
2023-05-21T05:47:38.848Z,22.55
2023-05-21T05:49:13.077Z,21.89
2023-05-21T05:50:47.417Z,22.19
2023-05-21T05:52:23.256Z,22.27
2023-05-21T05:53:57.086Z,22.25
2023-05-21T05:55:35.433Z,22.13
2023-05-21T05:57:09.990Z,22.23
2023-05-21T05:58:50.435Z,22.13
2023-05-21T06:00:24.802Z,21.76
2023-05-21T06:02:00.495Z,22.05
2023-05-21T06:03:37.129Z,21.83
2023-05-21T06:05:20.046Z,21.25
2023-05-21T06:06:54.808Z,21.78
2023-05-21T06:08:28.913Z,22.15
2023-05-21T06:10:02.746Z,22.22
2023-05-21T06:11:37.059Z,21.87
2023-05-21T06:13:10.697Z,22.31
2023-05-21T06:14:46.542Z,21.20
2023-05-21T06:16:19.739Z,21.87
2023-05-21T06:17:53.458Z,21.83
2023-05-21T06:19:27.046Z,22.38
2023-05-21T06:21:00.962Z,22.98
2023-05-21T06:22:35.425Z,23.01
2023-05-21T06:24:09.518Z,23.20
2023-05-21T06:25:43.618Z,23.24
2023-05-21T06:27:17.251Z,22.45
2023-05-21T06:28:52.237Z,22.76
2023-05-21T06:30:25.174Z,22.79
2023-05-21T06:31:59.535Z,22.64
2023-05-21T06:33:33.675Z,22.42
2023-05-21T06:35:08.054Z,22.91
2023-05-21T06:36:42.195Z,23.45
2023-05-21T06:38:15.766Z,23.00
2023-05-21T06:39:49.831Z,23.23
2023-05-21T06:41:24.129Z,23.47
2023-05-21T06:43:05.736Z,23.95
2023-05-21T06:45:14.960Z,23.50
2023-05-21T06:46:51.321Z,23.48
2023-05-21T06:48:26.371Z,22.82
2023-05-21T06:50:00.669Z,23.63
2023-05-21T06:51:34.652Z,23.54
2023-05-21T06:53:10.405Z,23.66
2023-05-21T06:54:43.937Z,23.53
2023-05-21T06:56:17.510Z,23.35
2023-05-21T06:57:51.153Z,23.65
2023-05-21T06:59:25.348Z,23.93
2023-05-21T07:01:02.120Z,23.83
2023-05-21T07:02:37.100Z,24.11
2023-05-21T07:04:11.526Z,23.99
2023-05-21T07:05:47.198Z,24.11
2023-05-21T07:07:20.781Z,24.36
2023-05-21T07:08:54.312Z,23.76
2023-05-21T07:10:27.619Z,23.51
2023-05-21T07:12:02.606Z,23.98
2023-05-21T07:13:37.099Z,23.93
2023-05-21T07:15:11.708Z,24.21
2023-05-21T07:16:46.126Z,23.90
2023-05-21T07:18:20.480Z,23.96
2023-05-21T07:19:54.360Z,23.96
2023-05-21T07:21:28.143Z,24.39
2023-05-21T07:23:01.863Z,24.23
2023-05-21T07:24:35.473Z,24.06
2023-05-21T07:26:10.636Z,24.41
2023-05-21T07:27:44.163Z,24.42
2023-05-21T07:29:17.543Z,24.23
2023-05-21T07:30:51.531Z,23.86
2023-05-21T07:32:29.863Z,24.08
2023-05-21T07:34:03.917Z,24.38
2023-05-21T07:35:39.112Z,24.41
2023-05-21T07:37:14.339Z,24.13
2023-05-21T07:38:48.007Z,24.28
2023-05-21T07:40:21.620Z,24.15
2023-05-21T07:41:55.388Z,23.69
2023-05-21T07:43:30.359Z,23.26
2023-05-21T07:45:04.470Z,23.70
2023-05-21T07:46:42.970Z,23.52
2023-05-21T07:48:19.800Z,23.57
2023-05-21T07:50:01.637Z,23.08
2023-05-21T07:51:37.551Z,22.82
2023-05-21T07:53:11.218Z,22.15
2023-05-21T07:54:44.567Z,22.62
2023-05-21T07:56:18.515Z,22.03
2023-05-21T07:57:52.758Z,22.15
2023-05-21T07:59:32.188Z,22.67
2023-05-21T08:01:14.671Z,22.80
2023-05-21T08:02:49.021Z,22.51
2023-05-21T08:04:23.517Z,22.15
2023-05-21T08:05:58.759Z,22.13
2023-05-21T08:07:33.023Z,22.39
2023-05-21T08:09:07.189Z,22.87
2023-05-21T08:10:41.394Z,22.76
2023-05-21T08:12:16.310Z,22.60
2023-05-21T08:13:50.499Z,22.11
2023-05-21T08:15:24.095Z,22.24
2023-05-21T08:16:57.731Z,21.91
2023-05-21T08:18:31.505Z,21.88
2023-05-21T08:20:05.666Z,22.11
2023-05-21T08:21:42.059Z,22.52
2023-05-21T08:23:17.725Z,22.19
2023-05-21T08:24:56.460Z,22.13
2023-05-21T08:26:29.714Z,22.75
2023-05-21T08:28:03.264Z,22.51
2023-05-21T08:29:37.145Z,22.71
2023-05-21T08:31:12.956Z,22.52
2023-05-21T08:32:46.996Z,22.54
2023-05-21T08:34:22.842Z,22.35
2023-05-21T08:36:08.406Z,22.52
2023-05-21T08:37:51.688Z,22.50
2023-05-21T08:39:47.048Z,22.52
2023-05-21T08:41:24.807Z,22.56
2023-05-21T08:42:59.626Z,22.42
2023-05-21T08:44:49.615Z,22.37
2023-05-21T08:46:25.712Z,22.35
2023-05-21T08:48:00.186Z,22.54
2023-05-21T08:49:38.738Z,22.33
2023-05-21T08:51:13.083Z,22.41
2023-05-21T08:52:53.171Z,22.12
2023-05-21T08:54:28.297Z,22.31
2023-05-21T08:56:02.443Z,22.51
2023-05-21T08:57:47.906Z,22.46
2023-05-21T08:59:24.039Z,22.34
2023-05-21T09:00:58.890Z,22.63
2023-05-21T09:02:41.009Z,22.20
2023-05-21T09:04:21.217Z,22.47
2023-05-21T09:05:59.598Z,22.40
2023-05-21T09:07:40.257Z,22.81
2023-05-21T09:09:40.524Z,22.69
2023-05-21T09:11:15.111Z,22.79
2023-05-21T09:12:57.034Z,22.62
2023-05-21T09:14:31.635Z,22.66
2023-05-21T09:16:20.170Z,22.56
2023-05-21T09:17:54.066Z,22.30
2023-05-21T09:20:27.206Z,22.78
2023-05-21T09:22:05.801Z,22.31
2023-05-21T09:23:40.359Z,22.75
2023-05-21T09:25:16.755Z,22.87
2023-05-21T09:26:52.704Z,22.97
2023-05-21T09:28:26.705Z,22.49
2023-05-21T09:30:00.578Z,22.85
2023-05-21T09:31:34.565Z,22.70
2023-05-21T09:33:08.200Z,22.90
2023-05-21T09:34:42.041Z,22.71
2023-05-21T09:36:20.542Z,22.76
2023-05-21T09:37:54.784Z,22.79
2023-05-21T09:39:30.569Z,22.64
2023-05-21T09:41:08.271Z,22.42
2023-05-21T09:42:46.336Z,22.38
2023-05-21T09:44:20.263Z,23.39
2023-05-21T09:45:56.197Z,22.88
2023-05-21T09:47:33.876Z,23.34
2023-05-21T09:49:07.531Z,22.82
2023-05-21T09:50:41.373Z,22.61
2023-05-21T09:52:15.025Z,22.06
2023-05-21T09:53:54.443Z,22.25
2023-05-21T09:55:29.330Z,22.27
2023-05-21T09:57:05.244Z,22.21
2023-05-21T09:58:39.786Z,22.31
2023-05-21T10:00:24.111Z,22.32
2023-05-21T10:01:57.864Z,21.85
2023-05-21T10:03:34.175Z,22.35
2023-05-21T10:05:11.919Z,22.32
2023-05-21T10:06:50.286Z,22.17
2023-05-21T10:08:28.214Z,21.92
2023-05-21T10:10:04.015Z,22.62
2023-05-21T10:11:38.286Z,22.39
2023-05-21T10:13:14.945Z,22.28
2023-05-21T10:14:55.082Z,22.73
2023-05-21T10:16:30.596Z,22.32
2023-05-21T10:18:05.494Z,22.18
2023-05-21T10:19:41.019Z,22.22
2023-05-21T10:21:18.323Z,22.10
2023-05-21T10:22:53.754Z,22.33
2023-05-21T10:24:28.061Z,22.15
2023-05-21T10:26:01.943Z,22.41
2023-05-21T10:27:38.873Z,22.56
2023-05-21T10:29:18.096Z,22.70
2023-05-21T10:30:54.393Z,22.93
2023-05-21T10:32:28.531Z,22.46
2023-05-21T10:34:05.275Z,22.25
2023-05-21T10:35:41.757Z,22.46
2023-05-21T10:37:16.814Z,22.39
2023-05-21T10:38:50.052Z,22.59
2023-05-21T10:40:24.096Z,22.43
2023-05-21T10:42:21.768Z,22.57
2023-05-21T10:43:58.324Z,22.63
2023-05-21T10:46:03.827Z,22.62
2023-05-21T10:47:54.347Z,22.15
2023-05-21T10:49:47.546Z,22.09
2023-05-21T10:51:24.388Z,22.63
2023-05-21T10:53:51.355Z,22.50
2023-05-21T10:55:50.597Z,22.52
2023-05-21T10:57:42.620Z,22.79
2023-05-21T10:59:29.268Z,22.54
2023-05-21T11:01:04.348Z,22.32
2023-05-21T11:02:38.270Z,22.28
2023-05-21T11:04:12.851Z,22.25
2023-05-21T11:05:57.156Z,22.21
2023-05-21T11:07:58.760Z,22.43
2023-05-21T11:09:32.730Z,22.18
2023-05-21T11:11:06.543Z,22.33
2023-05-21T11:13:11.390Z,22.30
2023-05-21T11:14:57.654Z,22.14
2023-05-21T11:16:31.797Z,22.18
2023-05-21T11:18:05.731Z,22.30
2023-05-21T11:19:51.231Z,22.01
2023-05-21T11:21:31.156Z,22.28
2023-05-21T11:23:05.689Z,22.30
2023-05-21T11:24:41.742Z,22.42
2023-05-21T11:26:28.383Z,22.52
2023-05-21T11:28:07.252Z,22.26
2023-05-21T11:29:45.050Z,22.44
2023-05-21T11:31:30.383Z,22.53
2023-05-21T11:33:14.389Z,22.41
2023-05-21T11:34:49.030Z,22.45
2023-05-21T11:36:23.213Z,22.28
2023-05-21T11:37:56.808Z,22.57
2023-05-21T11:39:30.754Z,22.50
2023-05-21T11:41:04.907Z,22.58
2023-05-21T11:42:42.833Z,22.42
2023-05-21T11:44:16.054Z,22.64
2023-05-21T11:45:52.855Z,22.23
2023-05-21T11:47:28.382Z,22.90
2023-05-21T11:49:03.634Z,22.44
2023-05-21T11:50:38.085Z,22.27
2023-05-21T11:52:15.565Z,22.22
2023-05-21T11:53:49.613Z,22.37
2023-05-21T11:55:25.434Z,22.16
2023-05-21T11:57:00.792Z,22.30
2023-05-21T11:58:34.633Z,22.18
2023-05-21T12:00:14.694Z,22.18
2023-05-21T12:01:49.499Z,22.33
2023-05-21T12:03:27.496Z,22.32
2023-05-21T12:05:02.592Z,22.30
2023-05-21T12:06:38.570Z,22.06
2023-05-21T12:08:12.760Z,22.21
2023-05-21T12:09:50.183Z,22.31
2023-05-21T12:11:24.580Z,22.38
2023-05-21T12:12:58.413Z,22.35
2023-05-21T12:14:32.994Z,22.42
2023-05-21T12:16:07.968Z,22.47
2023-05-21T12:17:42.261Z,22.26
2023-05-21T12:19:19.538Z,22.63
2023-05-21T12:20:53.257Z,22.49
2023-05-21T12:22:28.708Z,21.77
2023-05-21T12:24:03.031Z,22.18
2023-05-21T12:25:36.736Z,22.16
2023-05-21T12:27:13.562Z,22.52
2023-05-21T12:28:48.221Z,22.77
2023-05-21T12:30:22.259Z,22.81
2023-05-21T12:32:03.838Z,22.75
2023-05-21T12:33:37.658Z,22.57
2023-05-21T12:35:22.134Z,22.88
2023-05-21T12:36:56.092Z,22.90
2023-05-21T12:38:32.933Z,22.44
2023-05-21T12:40:10.437Z,22.48
2023-05-21T12:41:44.705Z,22.33
2023-05-21T12:43:18.755Z,22.63
2023-05-21T12:44:53.697Z,22.65
2023-05-21T12:46:28.579Z,22.86
2023-05-21T12:48:02.615Z,22.68
2023-05-21T12:49:50.307Z,22.30
2023-05-21T12:51:24.286Z,22.42
2023-05-21T12:52:59.475Z,22.30
2023-05-21T12:54:40.489Z,22.49
2023-05-21T12:56:15.885Z,22.11
2023-05-21T12:57:49.684Z,22.09
2023-05-21T12:59:23.420Z,22.21
2023-05-21T13:00:58.764Z,22.19
2023-05-21T13:02:34.938Z,22.33
2023-05-21T13:04:08.908Z,22.11
2023-05-21T13:05:42.852Z,22.08
2023-05-21T13:07:17.315Z,22.04
2023-05-21T13:08:51.269Z,21.91
2023-05-21T13:10:24.846Z,22.03
2023-05-21T13:11:58.249Z,22.27
2023-05-21T13:13:32.025Z,22.37
2023-05-21T13:15:08.644Z,22.21
2023-05-21T13:16:47.757Z,22.36
2023-05-21T13:18:21.986Z,22.36
2023-05-21T13:20:18.405Z,22.21
2023-05-21T13:21:52.114Z,22.64
2023-05-21T13:23:26.228Z,22.76
2023-05-21T13:24:59.758Z,22.73
2023-05-21T13:26:34.151Z,22.68
2023-05-21T13:28:10.727Z,22.51
2023-05-21T13:29:44.170Z,22.71
2023-05-21T13:31:17.837Z,22.65
2023-05-21T13:32:52.792Z,22.49
2023-05-21T13:34:26.149Z,22.54
2023-05-21T13:35:59.437Z,22.33
2023-05-21T13:37:35.286Z,22.21
2023-05-21T13:39:09.042Z,21.98
2023-05-21T13:40:42.625Z,22.09
2023-05-21T13:42:16.401Z,22.61
2023-05-21T13:43:50.028Z,23.07
2023-05-21T13:45:29.535Z,23.46
2023-05-21T13:47:12.476Z,23.59
2023-05-21T13:48:48.581Z,23.62
2023-05-21T13:50:22.350Z,23.51
2023-05-21T13:51:56.693Z,23.72
2023-05-21T13:53:30.872Z,24.08
2023-05-21T13:55:05.159Z,23.99
2023-05-21T13:56:38.874Z,24.04
2023-05-21T13:58:12.934Z,24.40
2023-05-21T13:59:46.531Z,24.11
2023-05-21T14:01:20.104Z,23.90
2023-05-21T14:02:54.327Z,24.02
2023-05-21T14:04:28.608Z,24.00
2023-05-21T14:06:02.748Z,23.90
2023-05-21T14:07:36.543Z,23.98
2023-05-21T14:09:10.800Z,24.09
2023-05-21T14:10:44.564Z,24.33
2023-05-21T14:12:18.161Z,24.26
2023-05-21T14:13:52.138Z,24.34
2023-05-21T14:15:25.595Z,24.37
2023-05-21T14:16:59.508Z,24.35
2023-05-21T14:18:33.309Z,24.43
2023-05-21T14:20:08.008Z,24.33
2023-05-21T14:21:42.239Z,24.59
2023-05-21T14:23:16.101Z,24.29
2023-05-21T14:24:49.969Z,24.47
2023-05-21T14:26:23.393Z,24.57
2023-05-21T14:27:56.948Z,24.79
2023-05-21T14:29:30.578Z,24.67
2023-05-21T14:31:04.436Z,24.42
2023-05-21T14:32:38.343Z,24.75
2023-05-21T14:34:12.023Z,24.43
2023-05-21T14:35:45.797Z,24.59
2023-05-21T14:37:19.192Z,24.72
2023-05-21T14:38:53.235Z,24.73
2023-05-21T14:40:26.799Z,24.71
2023-05-21T14:42:00.849Z,24.60
2023-05-21T14:43:34.928Z,24.81
2023-05-21T14:45:18.830Z,24.69
2023-05-21T14:46:52.792Z,24.55
2023-05-21T14:48:26.964Z,25.05
2023-05-21T14:50:00.157Z,24.93
2023-05-21T14:51:33.673Z,25.08
2023-05-21T14:53:12.952Z,24.83
2023-05-21T14:54:46.938Z,24.91
2023-05-21T14:56:22.317Z,24.83
2023-05-21T14:57:55.520Z,24.96
2023-05-21T14:59:29.382Z,25.05
2023-05-21T15:01:04.677Z,24.99
2023-05-21T15:02:38.717Z,25.06
2023-05-21T15:04:12.223Z,25.32
2023-05-21T15:05:46.116Z,25.32
2023-05-21T15:07:20.142Z,25.35
2023-05-21T15:08:54.035Z,25.56
2023-05-21T15:10:31.039Z,25.56
2023-05-21T15:12:04.626Z,25.47
2023-05-21T15:13:39.305Z,25.81
2023-05-21T15:15:13.153Z,25.83
2023-05-21T15:16:46.675Z,25.86
2023-05-21T15:18:20.150Z,25.69
2023-05-21T15:19:54.125Z,25.80
2023-05-21T15:21:28.193Z,25.92
2023-05-21T15:24:38.444Z,26.16
2023-05-21T15:26:12.391Z,26.27
2023-05-21T15:27:47.215Z,26.52
2023-05-21T15:29:22.219Z,26.36
2023-05-21T15:30:56.383Z,26.26
2023-05-21T15:32:30.219Z,26.37
2023-05-21T15:34:04.213Z,26.15
2023-05-21T15:35:38.528Z,26.28
2023-05-21T15:37:15.980Z,26.53
2023-05-21T15:38:50.730Z,26.67
2023-05-21T15:40:26.752Z,26.56
2023-05-21T15:42:03.842Z,26.57
2023-05-21T15:43:37.772Z,26.59
2023-05-21T15:45:11.886Z,26.92
2023-05-21T15:46:45.557Z,26.88
2023-05-21T15:48:22.883Z,26.93
2023-05-21T15:49:56.710Z,26.85
2023-05-21T15:51:30.790Z,26.81
2023-05-21T15:53:05.588Z,26.91
2023-05-21T15:54:39.393Z,26.63
2023-05-21T15:56:15.053Z,26.87
2023-05-21T15:57:48.645Z,27.18
2023-05-21T15:59:21.979Z,27.18
2023-05-21T16:00:55.862Z,27.00
2023-05-21T16:02:35.367Z,27.09
2023-05-21T16:04:09.290Z,27.21
2023-05-21T16:05:42.803Z,27.22
2023-05-21T16:07:16.236Z,27.49
2023-05-21T16:08:49.941Z,27.50
2023-05-21T16:10:23.815Z,27.53
2023-05-21T16:11:57.431Z,27.66
2023-05-21T16:13:30.971Z,27.51
2023-05-21T16:15:04.903Z,27.68
2023-05-21T16:16:39.691Z,27.72
2023-05-21T16:18:13.759Z,27.70
2023-05-21T16:19:47.947Z,27.81
2023-05-21T16:21:21.669Z,27.86
2023-05-21T16:22:55.829Z,27.94
2023-05-21T16:24:29.932Z,27.75
2023-05-21T16:26:03.817Z,27.91
2023-05-21T16:27:37.426Z,28.05
2023-05-21T16:29:11.440Z,27.80
2023-05-21T16:30:45.788Z,28.05
2023-05-21T16:32:22.549Z,28.20
2023-05-21T16:33:56.500Z,28.18
2023-05-21T16:35:31.948Z,28.11
2023-05-21T16:37:08.256Z,28.30
2023-05-21T16:38:41.917Z,28.43
2023-05-21T16:40:18.518Z,28.45
2023-05-21T16:41:52.296Z,28.46
2023-05-21T16:43:29.171Z,28.67
2023-05-21T16:45:02.722Z,28.73
2023-05-21T16:46:35.911Z,28.92
2023-05-21T16:48:10.610Z,29.02
2023-05-21T16:49:44.222Z,28.80
2023-05-21T16:51:18.471Z,28.81
2023-05-21T16:52:51.768Z,29.05
2023-05-21T16:54:25.192Z,29.07
2023-05-21T16:55:58.798Z,29.16
2023-05-21T16:57:32.123Z,29.25
2023-05-21T16:59:06.052Z,29.07
2023-05-21T17:00:40.543Z,29.30
2023-05-21T17:02:14.409Z,29.28
2023-05-21T17:03:47.715Z,29.35
2023-05-21T17:05:21.904Z,29.36
2023-05-21T17:06:55.464Z,29.43
2023-05-21T17:08:29.248Z,29.89
2023-05-21T17:10:03.302Z,29.76
2023-05-21T17:11:37.130Z,30.01
2023-05-21T17:13:21.657Z,29.99
2023-05-21T17:14:56.475Z,30.33
2023-05-21T17:16:30.005Z,30.27
2023-05-21T17:18:03.574Z,30.65
2023-05-21T17:19:37.888Z,30.73
2023-05-21T17:21:11.454Z,31.02
2023-05-21T17:22:45.211Z,30.97
2023-05-21T17:24:18.443Z,31.21
2023-05-21T17:25:53.153Z,31.39
2023-05-21T17:27:26.499Z,31.59
2023-05-21T17:28:59.668Z,31.75
2023-05-21T17:30:32.878Z,31.71
2023-05-21T17:32:06.919Z,31.87
2023-05-21T17:33:40.348Z,31.72
2023-05-21T17:35:13.860Z,31.73
2023-05-21T17:36:47.370Z,31.73
2023-05-21T17:38:21.069Z,31.92
2023-05-21T17:39:54.413Z,31.80
2023-05-21T17:41:27.714Z,31.78
2023-05-21T17:43:01.088Z,31.93
2023-05-21T17:44:34.830Z,31.89
2023-05-21T17:46:08.321Z,31.83
2023-05-21T17:47:41.766Z,31.93
2023-05-21T17:49:15.113Z,31.89
2023-05-21T17:50:48.490Z,32.11
2023-05-21T17:52:21.775Z,32.00
2023-05-21T17:53:54.951Z,31.91
2023-05-21T17:55:28.251Z,32.01
2023-05-21T17:57:01.897Z,31.99
2023-05-21T17:58:35.489Z,32.02
2023-05-21T18:00:09.561Z,32.16
2023-05-21T18:01:45.634Z,32.28
2023-05-21T18:03:19.546Z,32.30
2023-05-21T18:04:52.676Z,32.36
2023-05-21T18:06:25.896Z,32.16
2023-05-21T18:08:01.760Z,32.17
2023-05-21T18:09:36.763Z,32.35
2023-05-21T18:11:10.352Z,32.15
2023-05-21T18:12:46.626Z,32.23
2023-05-21T18:14:20.148Z,32.35
2023-05-21T18:15:53.938Z,31.93
2023-05-21T18:17:27.380Z,31.88
2023-05-21T18:19:06.322Z,31.82
2023-05-21T18:20:39.877Z,31.64
2023-05-21T18:22:13.517Z,31.62
2023-05-21T18:23:47.440Z,31.48
2023-05-21T18:25:21.092Z,31.53
2023-05-21T18:26:54.325Z,31.34
2023-05-21T18:28:33.151Z,31.34
2023-05-21T18:30:07.708Z,31.52
2023-05-21T18:31:41.317Z,31.52
2023-05-21T18:33:18.425Z,31.60
2023-05-21T18:34:52.269Z,31.59
2023-05-21T18:36:26.894Z,31.57
2023-05-21T18:38:00.195Z,31.57
2023-05-21T18:39:36.298Z,31.67
2023-05-21T18:41:09.962Z,31.62
2023-05-21T18:42:43.378Z,31.48
2023-05-21T18:44:16.656Z,31.40
2023-05-21T18:45:50.178Z,31.52
2023-05-21T18:47:24.252Z,31.74
2023-05-21T18:48:59.490Z,31.84
2023-05-21T18:50:33.117Z,32.07
2023-05-21T18:52:06.917Z,32.40
2023-05-21T18:53:41.053Z,32.18
2023-05-21T18:55:15.133Z,32.04
2023-05-21T18:56:48.348Z,32.25
2023-05-21T18:58:21.609Z,32.24
2023-05-21T18:59:54.791Z,32.40
2023-05-21T19:01:28.618Z,32.70
2023-05-21T19:03:02.621Z,32.70
2023-05-21T19:04:38.843Z,32.64
2023-05-21T19:06:12.737Z,32.69
2023-05-21T19:07:45.988Z,32.95
2023-05-21T19:09:19.016Z,33.01
2023-05-21T19:10:53.493Z,33.02
2023-05-21T19:12:27.077Z,32.87
2023-05-21T19:14:04.027Z,33.14
2023-05-21T19:15:40.513Z,33.23
2023-05-21T19:17:14.090Z,33.02
2023-05-21T19:18:47.974Z,33.04
2023-05-21T19:20:25.237Z,33.01
2023-05-21T19:21:58.638Z,33.04
2023-05-21T19:23:41.218Z,33.11
2023-05-21T19:25:22.469Z,33.16
2023-05-21T19:26:55.979Z,33.37
2023-05-21T19:28:29.271Z,33.49
2023-05-21T19:30:02.444Z,33.52
2023-05-21T19:31:40.458Z,33.87
2023-05-21T19:33:14.261Z,33.88
2023-05-21T19:34:48.543Z,33.77
2023-05-21T19:36:22.452Z,34.11
2023-05-21T19:38:01.753Z,34.03
2023-05-21T19:39:43.343Z,34.01
2023-05-21T19:41:20.404Z,34.20
2023-05-21T19:42:53.707Z,34.21
2023-05-21T19:44:27.148Z,34.27
2023-05-21T19:46:00.814Z,34.16
2023-05-21T19:47:34.156Z,34.29
2023-05-21T19:49:07.306Z,34.05
2023-05-21T19:50:41.320Z,34.38
2023-05-21T19:52:14.513Z,34.32
2023-05-21T19:53:47.410Z,34.41
2023-05-21T19:55:26.817Z,34.40
2023-05-21T19:57:00.453Z,34.29
2023-05-21T19:58:33.911Z,34.35
2023-05-21T20:00:10.538Z,34.29
2023-05-21T20:01:46.472Z,34.29
2023-05-21T20:03:19.515Z,34.34
2023-05-21T20:04:54.764Z,34.26
2023-05-21T20:06:28.730Z,34.51
2023-05-21T20:08:02.575Z,34.63
2023-05-21T20:09:35.876Z,34.93
2023-05-21T20:11:09.727Z,35.06
2023-05-21T20:12:43.358Z,35.28
2023-05-21T20:14:16.763Z,35.12
2023-05-21T20:15:50.926Z,35.07
2023-05-21T20:17:25.465Z,35.14
2023-05-21T20:18:59.151Z,35.19
2023-05-21T20:20:35.492Z,35.23
2023-05-21T20:22:09.996Z,35.61
2023-05-21T20:23:45.650Z,35.84
2023-05-21T20:25:18.995Z,36.01
2023-05-21T20:26:52.386Z,36.10
2023-05-21T20:28:25.920Z,35.73
2023-05-21T20:29:59.585Z,36.23
2023-05-21T20:31:32.815Z,36.14
2023-05-21T20:33:05.803Z,36.41
2023-05-21T20:34:47.299Z,36.14